sensor_id;sensor_type;location;lat;lon;timestamp;P1;durP1;ratioP1;P2;durP2;ratioP2
10096;SDS011;5087;42.662;23.466;2024-01-11T00:00:12;2.57;;;2.57;;
10096;SDS011;5087;42.662;23.466;2024-01-11T00:02:40;2.40;;;2.40;;
10096;SDS011;5087;42.662;23.466;2024-01-11T00:05:09;2.40;;;2.40;;
10096;SDS011;5087;42.662;23.466;2024-01-11T00:07:38;2.30;;;2.30;;
10096;SDS011;5087;42.662;23.466;2024-01-11T00:10:05;2.30;;;2.30;;
10096;SDS011;5087;42.662;23.466;2024-01-11T00:12:33;2.20;;;2.20;;
10096;SDS011;5087;42.662;23.466;2024-01-11T00:15:00;2.30;;;2.30;;
10096;SDS011;5087;42.662;23.466;2024-01-11T00:17:28;2.10;;;2.10;;
10096;SDS011;5087;42.662;23.466;2024-01-11T00:19:54;1.90;;;1.90;;
10096;SDS011;5087;42.662;23.466;2024-01-11T00:22:21;1.90;;;1.90;;
10096;SDS011;5087;42.662;23.466;2024-01-11T00:24:50;2.00;;;2.00;;
10096;SDS011;5087;42.662;23.466;2024-01-11T00:27:18;2.00;;;2.00;;
10096;SDS011;5087;42.662;23.466;2024-01-11T00:29:45;2.00;;;2.00;;
10096;SDS011;5087;42.662;23.466;2024-01-11T00:32:12;2.30;;;2.30;;
10096;SDS011;5087;42.662;23.466;2024-01-11T00:34:39;2.03;;;2.03;;
10096;SDS011;5087;42.662;23.466;2024-01-11T00:37:07;1.80;;;1.80;;
10096;SDS011;5087;42.662;23.466;2024-01-11T00:39:35;1.93;;;1.93;;
10096;SDS011;5087;42.662;23.466;2024-01-11T00:42:04;1.37;;;1.37;;
10096;SDS011;5087;42.662;23.466;2024-01-11T00:44:31;1.50;;;1.50;;
10096;SDS011;5087;42.662;23.466;2024-01-11T00:46:59;1.50;;;1.50;;
10096;SDS011;5087;42.662;23.466;2024-01-11T00:49:26;1.30;;;1.30;;
10096;SDS011;5087;42.662;23.466;2024-01-11T00:51:53;1.20;;;1.20;;
10096;SDS011;5087;42.662;23.466;2024-01-11T00:54:21;1.10;;;1.10;;
10096;SDS011;5087;42.662;23.466;2024-01-11T00:56:49;1.20;;;1.20;;
10096;SDS011;5087;42.662;23.466;2024-01-11T00:59:17;1.00;;;1.00;;
10096;SDS011;5087;42.662;23.466;2024-01-11T01:01:46;1.20;;;1.20;;
10096;SDS011;5087;42.662;23.466;2024-01-11T01:04:14;1.10;;;1.10;;
10096;SDS011;5087;42.662;23.466;2024-01-11T01:06:41;1.30;;;1.30;;
10096;SDS011;5087;42.662;23.466;2024-01-11T01:09:09;1.10;;;1.10;;
10096;SDS011;5087;42.662;23.466;2024-01-11T01:11:36;1.47;;;1.47;;
10096;SDS011;5087;42.662;23.466;2024-01-11T01:14:04;1.37;;;1.37;;
10096;SDS011;5087;42.662;23.466;2024-01-11T01:16:33;1.33;;;1.33;;
10096;SDS011;5087;42.662;23.466;2024-01-11T01:19:00;1.60;;;1.60;;
10096;SDS011;5087;42.662;23.466;2024-01-11T01:21:27;1.23;;;1.23;;
10096;SDS011;5087;42.662;23.466;2024-01-11T01:23:55;1.43;;;1.43;;
10096;SDS011;5087;42.662;23.466;2024-01-11T01:26:22;1.50;;;1.50;;
10096;SDS011;5087;42.662;23.466;2024-01-11T01:28:49;1.60;;;1.60;;
10096;SDS011;5087;42.662;23.466;2024-01-11T01:31:17;1.50;;;1.50;;
10096;SDS011;5087;42.662;23.466;2024-01-11T01:33:45;1.80;;;1.80;;
10096;SDS011;5087;42.662;23.466;2024-01-11T01:36:15;1.97;;;1.97;;
10096;SDS011;5087;42.662;23.466;2024-01-11T01:38:43;2.20;;;2.20;;
10096;SDS011;5087;42.662;23.466;2024-01-11T01:41:11;2.07;;;2.07;;
10096;SDS011;5087;42.662;23.466;2024-01-11T01:43:38;2.20;;;2.20;;
10096;SDS011;5087;42.662;23.466;2024-01-11T01:46:05;2.33;;;2.33;;
10096;SDS011;5087;42.662;23.466;2024-01-11T01:48:32;2.20;;;2.20;;
10096;SDS011;5087;42.662;23.466;2024-01-11T01:51:02;2.63;;;2.63;;
10096;SDS011;5087;42.662;23.466;2024-01-11T01:53:29;2.57;;;2.57;;
10096;SDS011;5087;42.662;23.466;2024-01-11T01:55:57;2.40;;;2.40;;
10096;SDS011;5087;42.662;23.466;2024-01-11T01:58:24;2.53;;;2.53;;
10096;SDS011;5087;42.662;23.466;2024-01-11T02:00:51;2.40;;;2.40;;
10096;SDS011;5087;42.662;23.466;2024-01-11T02:03:19;2.60;;;2.60;;
10096;SDS011;5087;42.662;23.466;2024-01-11T02:05:47;2.17;;;2.17;;
10096;SDS011;5087;42.662;23.466;2024-01-11T02:08:18;2.20;;;2.20;;
10096;SDS011;5087;42.662;23.466;2024-01-11T02:10:48;2.30;;;2.30;;
10096;SDS011;5087;42.662;23.466;2024-01-11T02:13:16;2.00;;;2.00;;
10096;SDS011;5087;42.662;23.466;2024-01-11T02:15:43;1.70;;;1.70;;
10096;SDS011;5087;42.662;23.466;2024-01-11T02:18:12;2.00;;;2.00;;
10096;SDS011;5087;42.662;23.466;2024-01-11T02:20:39;1.60;;;1.60;;
10096;SDS011;5087;42.662;23.466;2024-01-11T02:23:08;1.60;;;1.60;;
10096;SDS011;5087;42.662;23.466;2024-01-11T02:25:43;1.67;;;1.67;;
10096;SDS011;5087;42.662;23.466;2024-01-11T02:28:10;1.50;;;1.50;;
10096;SDS011;5087;42.662;23.466;2024-01-11T02:30:38;1.60;;;1.60;;
10096;SDS011;5087;42.662;23.466;2024-01-11T02:33:05;1.40;;;1.40;;
10096;SDS011;5087;42.662;23.466;2024-01-11T02:35:33;1.70;;;1.70;;
10096;SDS011;5087;42.662;23.466;2024-01-11T02:38:02;1.77;;;1.77;;
10096;SDS011;5087;42.662;23.466;2024-01-11T02:40:30;2.17;;;2.17;;
10096;SDS011;5087;42.662;23.466;2024-01-11T02:42:59;1.97;;;1.97;;
10096;SDS011;5087;42.662;23.466;2024-01-11T02:45:34;1.10;;;1.10;;
10096;SDS011;5087;42.662;23.466;2024-01-11T02:48:01;1.40;;;1.40;;
10096;SDS011;5087;42.662;23.466;2024-01-11T02:50:29;1.20;;;1.20;;
10096;SDS011;5087;42.662;23.466;2024-01-11T02:52:56;1.30;;;1.30;;
10096;SDS011;5087;42.662;23.466;2024-01-11T02:55:23;1.60;;;1.60;;
10096;SDS011;5087;42.662;23.466;2024-01-11T02:57:50;1.70;;;1.70;;
10096;SDS011;5087;42.662;23.466;2024-01-11T03:00:19;1.70;;;1.70;;
10096;SDS011;5087;42.662;23.466;2024-01-11T03:02:47;1.80;;;1.80;;
10096;SDS011;5087;42.662;23.466;2024-01-11T03:05:14;1.77;;;1.77;;
10096;SDS011;5087;42.662;23.466;2024-01-11T03:07:43;1.93;;;1.93;;
10096;SDS011;5087;42.662;23.466;2024-01-11T03:10:11;2.03;;;2.03;;
10096;SDS011;5087;42.662;23.466;2024-01-11T03:12:39;2.00;;;2.00;;
10096;SDS011;5087;42.662;23.466;2024-01-11T03:15:06;1.97;;;1.97;;
10096;SDS011;5087;42.662;23.466;2024-01-11T03:17:35;2.20;;;2.20;;
10096;SDS011;5087;42.662;23.466;2024-01-11T03:20:03;1.97;;;1.97;;
10096;SDS011;5087;42.662;23.466;2024-01-11T03:22:31;2.27;;;2.27;;
10096;SDS011;5087;42.662;23.466;2024-01-11T03:24:58;1.90;;;1.90;;
10096;SDS011;5087;42.662;23.466;2024-01-11T03:27:25;1.90;;;1.90;;
10096;SDS011;5087;42.662;23.466;2024-01-11T03:29:52;1.90;;;1.90;;
10096;SDS011;5087;42.662;23.466;2024-01-11T03:32:19;2.40;;;2.40;;
10096;SDS011;5087;42.662;23.466;2024-01-11T03:34:48;2.57;;;2.57;;
10096;SDS011;5087;42.662;23.466;2024-01-11T03:37:15;2.53;;;2.53;;
10096;SDS011;5087;42.662;23.466;2024-01-11T03:39:43;2.30;;;2.30;;
10096;SDS011;5087;42.662;23.466;2024-01-11T03:42:10;2.27;;;2.27;;
10096;SDS011;5087;42.662;23.466;2024-01-11T03:44:37;1.90;;;1.90;;
10096;SDS011;5087;42.662;23.466;2024-01-11T03:47:04;1.90;;;1.90;;
10096;SDS011;5087;42.662;23.466;2024-01-11T03:49:32;2.20;;;2.20;;
10096;SDS011;5087;42.662;23.466;2024-01-11T03:52:00;2.13;;;2.13;;
10096;SDS011;5087;42.662;23.466;2024-01-11T03:54:27;2.00;;;2.00;;
10096;SDS011;5087;42.662;23.466;2024-01-11T03:56:55;2.13;;;2.13;;
10096;SDS011;5087;42.662;23.466;2024-01-11T03:59:23;2.10;;;2.10;;
10096;SDS011;5087;42.662;23.466;2024-01-11T04:01:51;2.50;;;2.50;;
10096;SDS011;5087;42.662;23.466;2024-01-11T04:04:18;2.83;;;2.83;;
10096;SDS011;5087;42.662;23.466;2024-01-11T04:06:45;2.20;;;2.20;;
10096;SDS011;5087;42.662;23.466;2024-01-11T04:09:14;2.43;;;2.43;;
10096;SDS011;5087;42.662;23.466;2024-01-11T04:11:41;2.60;;;2.60;;
10096;SDS011;5087;42.662;23.466;2024-01-11T04:14:08;2.53;;;2.53;;
10096;SDS011;5087;42.662;23.466;2024-01-11T04:16:39;1.80;;;1.80;;
10096;SDS011;5087;42.662;23.466;2024-01-11T04:19:09;1.80;;;1.80;;
10096;SDS011;5087;42.662;23.466;2024-01-11T04:21:37;2.20;;;2.20;;
10096;SDS011;5087;42.662;23.466;2024-01-11T04:24:05;2.00;;;2.00;;
10096;SDS011;5087;42.662;23.466;2024-01-11T04:26:34;2.10;;;2.10;;
10096;SDS011;5087;42.662;23.466;2024-01-11T04:29:01;2.40;;;2.40;;
10096;SDS011;5087;42.662;23.466;2024-01-11T04:31:28;2.27;;;2.27;;
10096;SDS011;5087;42.662;23.466;2024-01-11T04:33:56;2.30;;;2.30;;
10096;SDS011;5087;42.662;23.466;2024-01-11T04:36:23;2.17;;;2.17;;
10096;SDS011;5087;42.662;23.466;2024-01-11T04:38:50;2.43;;;2.43;;
10096;SDS011;5087;42.662;23.466;2024-01-11T04:41:17;2.87;;;2.87;;
10096;SDS011;5087;42.662;23.466;2024-01-11T04:43:50;3.07;;;3.07;;
10096;SDS011;5087;42.662;23.466;2024-01-11T04:46:17;2.93;;;2.93;;
10096;SDS011;5087;42.662;23.466;2024-01-11T04:48:45;3.10;;;3.10;;
10096;SDS011;5087;42.662;23.466;2024-01-11T04:51:14;3.27;;;3.27;;
10096;SDS011;5087;42.662;23.466;2024-01-11T04:53:45;3.57;;;3.57;;
10096;SDS011;5087;42.662;23.466;2024-01-11T04:56:16;3.10;;;3.10;;
10096;SDS011;5087;42.662;23.466;2024-01-11T04:58:44;3.80;;;3.80;;
10096;SDS011;5087;42.662;23.466;2024-01-11T05:01:13;3.80;;;3.80;;
10096;SDS011;5087;42.662;23.466;2024-01-11T05:03:40;4.10;;;4.00;;
10096;SDS011;5087;42.662;23.466;2024-01-11T05:06:08;3.80;;;3.80;;
10096;SDS011;5087;42.662;23.466;2024-01-11T05:08:41;3.70;;;3.70;;
10096;SDS011;5087;42.662;23.466;2024-01-11T05:11:16;4.47;;;4.37;;
10096;SDS011;5087;42.662;23.466;2024-01-11T05:13:44;3.80;;;3.80;;
10096;SDS011;5087;42.662;23.466;2024-01-11T05:16:21;4.13;;;4.03;;
10096;SDS011;5087;42.662;23.466;2024-01-11T05:18:49;3.83;;;3.83;;
10096;SDS011;5087;42.662;23.466;2024-01-11T05:21:25;4.10;;;4.00;;
10096;SDS011;5087;42.662;23.466;2024-01-11T05:23:52;3.13;;;3.13;;
10096;SDS011;5087;42.662;23.466;2024-01-11T05:26:20;3.70;;;3.70;;
10096;SDS011;5087;42.662;23.466;2024-01-11T05:28:47;3.73;;;3.73;;
10096;SDS011;5087;42.662;23.466;2024-01-11T05:31:19;3.43;;;3.43;;
10096;SDS011;5087;42.662;23.466;2024-01-11T05:33:48;3.77;;;3.77;;
10096;SDS011;5087;42.662;23.466;2024-01-11T05:36:15;3.23;;;3.23;;
10096;SDS011;5087;42.662;23.466;2024-01-11T05:38:45;4.33;;;4.23;;
10096;SDS011;5087;42.662;23.466;2024-01-11T05:41:12;4.03;;;3.93;;
10096;SDS011;5087;42.662;23.466;2024-01-11T05:43:40;3.63;;;3.63;;
10096;SDS011;5087;42.662;23.466;2024-01-11T05:46:08;3.70;;;3.70;;
10096;SDS011;5087;42.662;23.466;2024-01-11T05:48:37;3.67;;;3.67;;
10096;SDS011;5087;42.662;23.466;2024-01-11T05:51:04;3.67;;;3.67;;
10096;SDS011;5087;42.662;23.466;2024-01-11T05:53:32;2.30;;;2.30;;
10096;SDS011;5087;42.662;23.466;2024-01-11T05:56:00;2.80;;;2.80;;
10096;SDS011;5087;42.662;23.466;2024-01-11T05:58:28;2.40;;;2.40;;
10096;SDS011;5087;42.662;23.466;2024-01-11T06:00:55;2.43;;;2.43;;
10096;SDS011;5087;42.662;23.466;2024-01-11T06:03:23;2.10;;;2.10;;
10096;SDS011;5087;42.662;23.466;2024-01-11T06:05:51;1.90;;;1.90;;
10096;SDS011;5087;42.662;23.466;2024-01-11T06:08:19;2.00;;;2.00;;
10096;SDS011;5087;42.662;23.466;2024-01-11T06:10:46;2.10;;;2.10;;
10096;SDS011;5087;42.662;23.466;2024-01-11T06:13:13;2.40;;;2.40;;
10096;SDS011;5087;42.662;23.466;2024-01-11T06:15:41;1.97;;;1.97;;
10096;SDS011;5087;42.662;23.466;2024-01-11T06:18:10;2.23;;;2.23;;
10096;SDS011;5087;42.662;23.466;2024-01-11T06:20:37;2.17;;;2.17;;
10096;SDS011;5087;42.662;23.466;2024-01-11T06:23:06;2.10;;;2.10;;
10096;SDS011;5087;42.662;23.466;2024-01-11T06:25:34;2.20;;;2.20;;
10096;SDS011;5087;42.662;23.466;2024-01-11T06:28:02;2.07;;;2.07;;
10096;SDS011;5087;42.662;23.466;2024-01-11T06:30:32;2.40;;;2.40;;
10096;SDS011;5087;42.662;23.466;2024-01-11T06:33:02;1.90;;;1.90;;
10096;SDS011;5087;42.662;23.466;2024-01-11T06:35:29;2.10;;;2.10;;
10096;SDS011;5087;42.662;23.466;2024-01-11T06:37:56;2.17;;;2.17;;
10096;SDS011;5087;42.662;23.466;2024-01-11T06:40:26;2.00;;;2.00;;
10096;SDS011;5087;42.662;23.466;2024-01-11T06:42:53;1.80;;;1.80;;
10096;SDS011;5087;42.662;23.466;2024-01-11T06:45:22;1.73;;;1.73;;
10096;SDS011;5087;42.662;23.466;2024-01-11T06:47:49;1.77;;;1.77;;
10096;SDS011;5087;42.662;23.466;2024-01-11T06:53:03;1.60;;;1.60;;
10096;SDS011;5087;42.662;23.466;2024-01-11T06:55:35;1.60;;;1.60;;
10096;SDS011;5087;42.662;23.466;2024-01-11T06:58:02;1.60;;;1.60;;
10096;SDS011;5087;42.662;23.466;2024-01-11T07:00:29;1.63;;;1.63;;
10096;SDS011;5087;42.662;23.466;2024-01-11T07:02:56;1.80;;;1.80;;
10096;SDS011;5087;42.662;23.466;2024-01-11T07:05:25;1.90;;;1.90;;
10096;SDS011;5087;42.662;23.466;2024-01-11T07:08:06;2.13;;;2.13;;
10096;SDS011;5087;42.662;23.466;2024-01-11T07:10:35;2.20;;;2.20;;
10096;SDS011;5087;42.662;23.466;2024-01-11T07:13:03;2.33;;;2.33;;
10096;SDS011;5087;42.662;23.466;2024-01-11T07:15:32;2.30;;;2.30;;
10096;SDS011;5087;42.662;23.466;2024-01-11T07:17:59;2.70;;;2.70;;
10096;SDS011;5087;42.662;23.466;2024-01-11T07:20:26;2.70;;;2.70;;
10096;SDS011;5087;42.662;23.466;2024-01-11T07:22:53;2.60;;;2.60;;
10096;SDS011;5087;42.662;23.466;2024-01-11T07:25:21;2.80;;;2.80;;
10096;SDS011;5087;42.662;23.466;2024-01-11T07:27:49;2.80;;;2.80;;
10096;SDS011;5087;42.662;23.466;2024-01-11T07:30:17;2.93;;;2.93;;
10096;SDS011;5087;42.662;23.466;2024-01-11T07:32:45;3.10;;;3.10;;
10096;SDS011;5087;42.662;23.466;2024-01-11T07:35:13;3.13;;;3.13;;
10096;SDS011;5087;42.662;23.466;2024-01-11T07:37:41;3.03;;;3.03;;
10096;SDS011;5087;42.662;23.466;2024-01-11T07:40:10;3.33;;;3.33;;
10096;SDS011;5087;42.662;23.466;2024-01-11T07:42:39;3.20;;;3.20;;
10096;SDS011;5087;42.662;23.466;2024-01-11T07:45:09;3.57;;;3.57;;
10096;SDS011;5087;42.662;23.466;2024-01-11T07:47:37;3.77;;;3.77;;
10096;SDS011;5087;42.662;23.466;2024-01-11T07:50:04;3.67;;;3.67;;
10096;SDS011;5087;42.662;23.466;2024-01-11T07:52:32;3.43;;;3.43;;
10096;SDS011;5087;42.662;23.466;2024-01-11T07:55:00;3.57;;;3.57;;
10096;SDS011;5087;42.662;23.466;2024-01-11T07:57:32;3.63;;;3.63;;
10096;SDS011;5087;42.662;23.466;2024-01-11T07:59:59;3.07;;;3.07;;
10096;SDS011;5087;42.662;23.466;2024-01-11T08:02:39;3.40;;;3.40;;
10096;SDS011;5087;42.662;23.466;2024-01-11T08:05:07;3.47;;;3.47;;
10096;SDS011;5087;42.662;23.466;2024-01-11T08:07:35;3.40;;;3.40;;
10096;SDS011;5087;42.662;23.466;2024-01-11T08:10:03;3.43;;;3.43;;
10096;SDS011;5087;42.662;23.466;2024-01-11T08:12:32;3.40;;;3.40;;
10096;SDS011;5087;42.662;23.466;2024-01-11T08:14:59;3.90;;;3.90;;
10096;SDS011;5087;42.662;23.466;2024-01-11T08:17:26;4.20;;;4.10;;
10096;SDS011;5087;42.662;23.466;2024-01-11T08:19:55;3.80;;;3.80;;
10096;SDS011;5087;42.662;23.466;2024-01-11T08:22:22;4.27;;;4.17;;
10096;SDS011;5087;42.662;23.466;2024-01-11T08:24:49;4.50;;;4.40;;
10096;SDS011;5087;42.662;23.466;2024-01-11T08:27:17;4.90;;;4.80;;
10096;SDS011;5087;42.662;23.466;2024-01-11T08:29:44;5.03;;;4.93;;
10096;SDS011;5087;42.662;23.466;2024-01-11T08:32:12;4.80;;;4.70;;
10096;SDS011;5087;42.662;23.466;2024-01-11T08:34:49;5.30;;;5.20;;
10096;SDS011;5087;42.662;23.466;2024-01-11T08:37:17;5.40;;;5.30;;
10096;SDS011;5087;42.662;23.466;2024-01-11T08:39:45;5.37;;;5.27;;
10096;SDS011;5087;42.662;23.466;2024-01-11T08:42:21;5.23;;;5.13;;
10096;SDS011;5087;42.662;23.466;2024-01-11T08:44:48;5.00;;;4.90;;
10096;SDS011;5087;42.662;23.466;2024-01-11T08:47:17;4.70;;;4.60;;
10096;SDS011;5087;42.662;23.466;2024-01-11T08:49:44;4.67;;;4.57;;
10096;SDS011;5087;42.662;23.466;2024-01-11T08:52:12;4.60;;;4.50;;
10096;SDS011;5087;42.662;23.466;2024-01-11T08:54:40;4.30;;;4.20;;
10096;SDS011;5087;42.662;23.466;2024-01-11T08:57:10;4.70;;;4.60;;
10096;SDS011;5087;42.662;23.466;2024-01-11T08:59:38;5.20;;;5.10;;
10096;SDS011;5087;42.662;23.466;2024-01-11T09:02:05;5.50;;;5.40;;
10096;SDS011;5087;42.662;23.466;2024-01-11T09:04:32;5.77;;;5.67;;
10096;SDS011;5087;42.662;23.466;2024-01-11T09:07:00;5.90;;;5.80;;
10096;SDS011;5087;42.662;23.466;2024-01-11T09:09:27;5.70;;;5.60;;
10096;SDS011;5087;42.662;23.466;2024-01-11T09:11:56;6.20;;;6.10;;
10096;SDS011;5087;42.662;23.466;2024-01-11T09:14:23;6.20;;;6.10;;
10096;SDS011;5087;42.662;23.466;2024-01-11T09:16:50;6.07;;;5.97;;
10096;SDS011;5087;42.662;23.466;2024-01-11T09:19:18;5.10;;;5.00;;
10096;SDS011;5087;42.662;23.466;2024-01-11T09:21:45;4.40;;;4.30;;
10096;SDS011;5087;42.662;23.466;2024-01-11T09:24:12;4.80;;;4.70;;
10096;SDS011;5087;42.662;23.466;2024-01-11T09:26:39;4.90;;;4.80;;
10096;SDS011;5087;42.662;23.466;2024-01-11T09:29:08;4.43;;;4.33;;
10096;SDS011;5087;42.662;23.466;2024-01-11T09:31:35;3.60;;;3.60;;
10096;SDS011;5087;42.662;23.466;2024-01-11T09:34:03;3.50;;;3.50;;
10096;SDS011;5087;42.662;23.466;2024-01-11T09:36:30;3.40;;;3.40;;
10096;SDS011;5087;42.662;23.466;2024-01-11T09:38:58;3.23;;;3.23;;
10096;SDS011;5087;42.662;23.466;2024-01-11T09:41:25;3.00;;;3.00;;
10096;SDS011;5087;42.662;23.466;2024-01-11T09:43:53;2.90;;;2.90;;
10096;SDS011;5087;42.662;23.466;2024-01-11T09:46:25;2.90;;;2.90;;
10096;SDS011;5087;42.662;23.466;2024-01-11T09:48:54;3.20;;;3.20;;
10096;SDS011;5087;42.662;23.466;2024-01-11T09:51:22;3.40;;;3.40;;
10096;SDS011;5087;42.662;23.466;2024-01-11T09:53:55;3.17;;;3.17;;
10096;SDS011;5087;42.662;23.466;2024-01-11T09:56:22;2.80;;;2.80;;
10096;SDS011;5087;42.662;23.466;2024-01-11T09:58:50;3.50;;;3.50;;
10096;SDS011;5087;42.662;23.466;2024-01-11T10:01:18;3.60;;;3.60;;
10096;SDS011;5087;42.662;23.466;2024-01-11T10:03:47;4.60;;;4.50;;
10096;SDS011;5087;42.662;23.466;2024-01-11T10:06:14;4.83;;;4.73;;
10096;SDS011;5087;42.662;23.466;2024-01-11T10:08:44;4.90;;;4.80;;
10096;SDS011;5087;42.662;23.466;2024-01-11T10:11:11;5.00;;;4.90;;
10096;SDS011;5087;42.662;23.466;2024-01-11T10:13:38;4.30;;;4.20;;
10096;SDS011;5087;42.662;23.466;2024-01-11T10:16:06;4.70;;;4.60;;
10096;SDS011;5087;42.662;23.466;2024-01-11T10:18:34;4.27;;;4.17;;
10096;SDS011;5087;42.662;23.466;2024-01-11T10:21:18;4.00;;;4.00;;
10096;SDS011;5087;42.662;23.466;2024-01-11T10:23:46;4.40;;;4.30;;
10096;SDS011;5087;42.662;23.466;2024-01-11T10:26:15;4.20;;;4.10;;
10096;SDS011;5087;42.662;23.466;2024-01-11T10:28:46;3.77;;;3.77;;
10096;SDS011;5087;42.662;23.466;2024-01-11T10:31:13;4.33;;;4.23;;
10096;SDS011;5087;42.662;23.466;2024-01-11T10:33:41;4.40;;;4.30;;
10096;SDS011;5087;42.662;23.466;2024-01-11T10:36:11;4.40;;;4.30;;
10096;SDS011;5087;42.662;23.466;2024-01-11T10:38:39;4.30;;;4.20;;
10096;SDS011;5087;42.662;23.466;2024-01-11T10:41:07;4.23;;;4.13;;
10096;SDS011;5087;42.662;23.466;2024-01-11T10:43:36;4.40;;;4.30;;
10096;SDS011;5087;42.662;23.466;2024-01-11T10:46:04;4.53;;;4.43;;
10096;SDS011;5087;42.662;23.466;2024-01-11T10:48:33;4.50;;;4.40;;
10096;SDS011;5087;42.662;23.466;2024-01-11T10:51:15;4.40;;;4.30;;
10096;SDS011;5087;42.662;23.466;2024-01-11T10:53:48;4.20;;;4.10;;
10096;SDS011;5087;42.662;23.466;2024-01-11T10:56:18;3.77;;;3.77;;
10096;SDS011;5087;42.662;23.466;2024-01-11T10:58:47;3.73;;;3.73;;
10096;SDS011;5087;42.662;23.466;2024-01-11T11:01:15;3.70;;;3.70;;
10096;SDS011;5087;42.662;23.466;2024-01-11T11:03:44;3.80;;;3.80;;
10096;SDS011;5087;42.662;23.466;2024-01-11T11:06:12;3.70;;;3.70;;
10096;SDS011;5087;42.662;23.466;2024-01-11T11:08:40;3.80;;;3.80;;
10096;SDS011;5087;42.662;23.466;2024-01-11T11:11:24;3.40;;;3.40;;
10096;SDS011;5087;42.662;23.466;2024-01-11T11:13:52;3.57;;;3.57;;
10096;SDS011;5087;42.662;23.466;2024-01-11T11:16:20;3.50;;;3.50;;
10096;SDS011;5087;42.662;23.466;2024-01-11T11:18:52;3.20;;;3.20;;
10096;SDS011;5087;42.662;23.466;2024-01-11T11:21:20;3.10;;;3.10;;
10096;SDS011;5087;42.662;23.466;2024-01-11T11:23:50;2.83;;;2.83;;
10096;SDS011;5087;42.662;23.466;2024-01-11T11:26:17;2.80;;;2.80;;
10096;SDS011;5087;42.662;23.466;2024-01-11T11:28:46;2.20;;;2.20;;
10096;SDS011;5087;42.662;23.466;2024-01-11T11:31:15;2.10;;;2.10;;
10096;SDS011;5087;42.662;23.466;2024-01-11T11:34:01;1.87;;;1.87;;
10096;SDS011;5087;42.662;23.466;2024-01-11T11:36:29;1.90;;;1.90;;
10096;SDS011;5087;42.662;23.466;2024-01-11T11:38:56;1.90;;;1.90;;
10096;SDS011;5087;42.662;23.466;2024-01-11T11:41:26;2.03;;;2.03;;
10096;SDS011;5087;42.662;23.466;2024-01-11T11:43:55;2.50;;;2.50;;
10096;SDS011;5087;42.662;23.466;2024-01-11T11:46:27;2.30;;;2.30;;
10096;SDS011;5087;42.662;23.466;2024-01-11T11:48:54;2.00;;;2.00;;
10096;SDS011;5087;42.662;23.466;2024-01-11T11:51:22;1.80;;;1.80;;
10096;SDS011;5087;42.662;23.466;2024-01-11T11:53:50;1.70;;;1.70;;
10096;SDS011;5087;42.662;23.466;2024-01-11T11:56:19;1.90;;;1.90;;
10096;SDS011;5087;42.662;23.466;2024-01-11T11:58:47;2.43;;;2.43;;
10096;SDS011;5087;42.662;23.466;2024-01-11T12:01:19;2.37;;;2.37;;
10096;SDS011;5087;42.662;23.466;2024-01-11T12:03:46;2.50;;;2.50;;
10096;SDS011;5087;42.662;23.466;2024-01-11T12:06:15;2.73;;;2.73;;
10096;SDS011;5087;42.662;23.466;2024-01-11T12:08:43;2.23;;;2.23;;
10096;SDS011;5087;42.662;23.466;2024-01-11T12:11:14;1.90;;;1.90;;
10096;SDS011;5087;42.662;23.466;2024-01-11T12:13:44;1.77;;;1.77;;
10096;SDS011;5087;42.662;23.466;2024-01-11T12:16:11;1.40;;;1.40;;
10096;SDS011;5087;42.662;23.466;2024-01-11T12:18:40;1.30;;;1.30;;
10096;SDS011;5087;42.662;23.466;2024-01-11T12:21:08;1.00;;;1.00;;
10096;SDS011;5087;42.662;23.466;2024-01-11T12:23:37;1.00;;;1.00;;
10096;SDS011;5087;42.662;23.466;2024-01-11T12:26:06;1.00;;;1.00;;
10096;SDS011;5087;42.662;23.466;2024-01-11T12:28:38;1.10;;;1.10;;
10096;SDS011;5087;42.662;23.466;2024-01-11T12:31:07;1.10;;;1.10;;
10096;SDS011;5087;42.662;23.466;2024-01-11T12:33:34;1.10;;;1.10;;
10096;SDS011;5087;42.662;23.466;2024-01-11T12:36:06;1.10;;;1.10;;
10096;SDS011;5087;42.662;23.466;2024-01-11T12:38:34;1.00;;;1.00;;
10096;SDS011;5087;42.662;23.466;2024-01-11T12:41:01;1.00;;;1.00;;
10096;SDS011;5087;42.662;23.466;2024-01-11T12:43:29;1.07;;;1.07;;
10096;SDS011;5087;42.662;23.466;2024-01-11T12:45:56;1.10;;;1.10;;
10096;SDS011;5087;42.662;23.466;2024-01-11T12:48:32;1.00;;;1.00;;
10096;SDS011;5087;42.662;23.466;2024-01-11T12:51:07;1.00;;;1.00;;
10096;SDS011;5087;42.662;23.466;2024-01-11T12:53:35;1.10;;;1.10;;
10096;SDS011;5087;42.662;23.466;2024-01-11T12:56:09;1.00;;;1.00;;
10096;SDS011;5087;42.662;23.466;2024-01-11T12:58:38;1.00;;;1.00;;
10096;SDS011;5087;42.662;23.466;2024-01-11T13:01:06;1.10;;;1.10;;
10096;SDS011;5087;42.662;23.466;2024-01-11T13:03:35;0.90;;;0.90;;
10096;SDS011;5087;42.662;23.466;2024-01-11T13:06:03;1.00;;;1.00;;
10096;SDS011;5087;42.662;23.466;2024-01-11T13:08:32;1.00;;;1.00;;
10096;SDS011;5087;42.662;23.466;2024-01-11T13:11:01;0.90;;;0.90;;
10096;SDS011;5087;42.662;23.466;2024-01-11T13:13:32;1.10;;;1.10;;
10096;SDS011;5087;42.662;23.466;2024-01-11T13:15:59;1.20;;;1.20;;
10096;SDS011;5087;42.662;23.466;2024-01-11T13:18:27;1.10;;;1.10;;
10096;SDS011;5087;42.662;23.466;2024-01-11T13:20:54;1.30;;;1.30;;
10096;SDS011;5087;42.662;23.466;2024-01-11T13:23:24;1.20;;;1.20;;
10096;SDS011;5087;42.662;23.466;2024-01-11T13:25:53;1.10;;;1.10;;
10096;SDS011;5087;42.662;23.466;2024-01-11T13:28:21;1.00;;;1.00;;
10096;SDS011;5087;42.662;23.466;2024-01-11T13:30:48;1.20;;;1.20;;
10096;SDS011;5087;42.662;23.466;2024-01-11T13:33:15;1.20;;;1.20;;
10096;SDS011;5087;42.662;23.466;2024-01-11T13:35:46;1.10;;;1.10;;
10096;SDS011;5087;42.662;23.466;2024-01-11T13:38:13;0.90;;;0.90;;
10096;SDS011;5087;42.662;23.466;2024-01-11T13:40:40;1.10;;;1.10;;
10096;SDS011;5087;42.662;23.466;2024-01-11T13:43:10;1.10;;;1.10;;
10096;SDS011;5087;42.662;23.466;2024-01-11T13:45:37;1.00;;;1.00;;
10096;SDS011;5087;42.662;23.466;2024-01-11T13:48:07;1.10;;;1.10;;
10096;SDS011;5087;42.662;23.466;2024-01-11T13:50:34;1.00;;;1.00;;
10096;SDS011;5087;42.662;23.466;2024-01-11T13:53:03;1.00;;;1.00;;
10096;SDS011;5087;42.662;23.466;2024-01-11T13:55:31;1.00;;;1.00;;
10096;SDS011;5087;42.662;23.466;2024-01-11T13:58:06;0.90;;;0.90;;
10096;SDS011;5087;42.662;23.466;2024-01-11T14:00:35;0.87;;;0.87;;
10096;SDS011;5087;42.662;23.466;2024-01-11T14:03:03;0.80;;;0.80;;
10096;SDS011;5087;42.662;23.466;2024-01-11T14:05:31;1.00;;;1.00;;
10096;SDS011;5087;42.662;23.466;2024-01-11T14:08:00;0.90;;;0.90;;
10096;SDS011;5087;42.662;23.466;2024-01-11T14:10:30;0.80;;;0.80;;
10096;SDS011;5087;42.662;23.466;2024-01-11T14:12:58;0.97;;;0.97;;
10096;SDS011;5087;42.662;23.466;2024-01-11T14:15:26;0.90;;;0.90;;
10096;SDS011;5087;42.662;23.466;2024-01-11T14:17:55;1.20;;;1.20;;
10096;SDS011;5087;42.662;23.466;2024-01-11T14:20:22;1.13;;;1.13;;
10096;SDS011;5087;42.662;23.466;2024-01-11T14:22:53;1.00;;;1.00;;
10096;SDS011;5087;42.662;23.466;2024-01-11T14:25:20;0.90;;;0.90;;
10096;SDS011;5087;42.662;23.466;2024-01-11T14:27:50;0.80;;;0.80;;
10096;SDS011;5087;42.662;23.466;2024-01-11T14:30:18;0.80;;;0.80;;
10096;SDS011;5087;42.662;23.466;2024-01-11T14:32:47;0.70;;;0.70;;
10096;SDS011;5087;42.662;23.466;2024-01-11T14:35:17;0.80;;;0.80;;
10096;SDS011;5087;42.662;23.466;2024-01-11T14:37:44;0.83;;;0.83;;
10096;SDS011;5087;42.662;23.466;2024-01-11T14:40:11;0.90;;;0.90;;
10096;SDS011;5087;42.662;23.466;2024-01-11T14:42:39;0.70;;;0.70;;
10096;SDS011;5087;42.662;23.466;2024-01-11T14:45:08;0.70;;;0.70;;
10096;SDS011;5087;42.662;23.466;2024-01-11T14:47:36;0.80;;;0.80;;
10096;SDS011;5087;42.662;23.466;2024-01-11T14:50:05;0.80;;;0.80;;
10096;SDS011;5087;42.662;23.466;2024-01-11T14:52:40;0.80;;;0.80;;
10096;SDS011;5087;42.662;23.466;2024-01-11T14:55:09;0.80;;;0.80;;
10096;SDS011;5087;42.662;23.466;2024-01-11T14:57:36;0.80;;;0.80;;